sensor_id;sensor_type;location;lat;lon;timestamp;P1;durP1;ratioP1;P2;durP2;ratioP2
46815;SDS011;32787;53.316;8.670;2023-12-20T00:00:58;17.00;;;2.03;;
46815;SDS011;32787;53.316;8.670;2023-12-20T00:03:23;15.50;;;2.13;;
46815;SDS011;32787;53.316;8.670;2023-12-20T00:05:49;21.65;;;3.15;;
46815;SDS011;32787;53.316;8.670;2023-12-20T00:08:15;16.60;;;1.98;;
46815;SDS011;32787;53.316;8.670;2023-12-20T00:10:41;17.58;;;2.67;;
46815;SDS011;32787;53.316;8.670;2023-12-20T00:13:07;19.45;;;2.88;;
46815;SDS011;32787;53.316;8.670;2023-12-20T00:15:34;16.98;;;2.50;;
46815;SDS011;32787;53.316;8.670;2023-12-20T00:18:00;14.98;;;2.40;;
46815;SDS011;32787;53.316;8.670;2023-12-20T00:20:26;23.10;;;2.60;;
46815;SDS011;32787;53.316;8.670;2023-12-20T00:22:52;17.75;;;2.10;;
46815;SDS011;32787;53.316;8.670;2023-12-20T00:25:19;26.33;;;3.28;;
46815;SDS011;32787;53.316;8.670;2023-12-20T00:27:45;16.75;;;2.72;;
46815;SDS011;32787;53.316;8.670;2023-12-20T00:30:11;23.77;;;3.10;;
46815;SDS011;32787;53.316;8.670;2023-12-20T00:32:36;17.33;;;2.28;;
46815;SDS011;32787;53.316;8.670;2023-12-20T00:35:03;24.88;;;2.70;;
46815;SDS011;32787;53.316;8.670;2023-12-20T00:37:29;11.40;;;2.55;;
46815;SDS011;32787;53.316;8.670;2023-12-20T00:39:54;22.23;;;2.25;;
46815;SDS011;32787;53.316;8.670;2023-12-20T00:42:20;10.70;;;2.35;;
46815;SDS011;32787;53.316;8.670;2023-12-20T00:44:45;16.52;;;2.60;;
46815;SDS011;32787;53.316;8.670;2023-12-20T00:47:11;18.30;;;2.60;;
46815;SDS011;32787;53.316;8.670;2023-12-20T00:49:38;15.68;;;3.50;;
46815;SDS011;32787;53.316;8.670;2023-12-20T00:52:04;15.88;;;2.63;;
46815;SDS011;32787;53.316;8.670;2023-12-20T00:54:30;14.95;;;2.67;;
46815;SDS011;32787;53.316;8.670;2023-12-20T00:56:56;23.98;;;3.33;;
46815;SDS011;32787;53.316;8.670;2023-12-20T00:59:21;17.23;;;2.53;;
46815;SDS011;32787;53.316;8.670;2023-12-20T01:01:47;14.90;;;2.20;;
46815;SDS011;32787;53.316;8.670;2023-12-20T01:04:12;18.33;;;2.75;;
46815;SDS011;32787;53.316;8.670;2023-12-20T01:06:38;16.95;;;2.75;;
46815;SDS011;32787;53.316;8.670;2023-12-20T01:09:04;19.15;;;3.08;;
46815;SDS011;32787;53.316;8.670;2023-12-20T01:11:30;13.60;;;2.15;;
46815;SDS011;32787;53.316;8.670;2023-12-20T01:13:55;17.27;;;2.95;;
46815;SDS011;32787;53.316;8.670;2023-12-20T01:16:21;20.27;;;2.90;;
46815;SDS011;32787;53.316;8.670;2023-12-20T01:18:46;24.30;;;2.70;;
46815;SDS011;32787;53.316;8.670;2023-12-20T01:21:12;16.77;;;2.50;;
46815;SDS011;32787;53.316;8.670;2023-12-20T01:23:38;28.05;;;3.40;;
46815;SDS011;32787;53.316;8.670;2023-12-20T01:26:03;22.58;;;3.08;;
46815;SDS011;32787;53.316;8.670;2023-12-20T01:28:30;15.73;;;2.90;;
46815;SDS011;32787;53.316;8.670;2023-12-20T01:30:56;13.98;;;2.65;;
46815;SDS011;32787;53.316;8.670;2023-12-20T01:33:22;17.33;;;2.30;;
46815;SDS011;32787;53.316;8.670;2023-12-20T01:35:48;23.30;;;2.58;;
46815;SDS011;32787;53.316;8.670;2023-12-20T01:38:14;13.18;;;2.72;;
46815;SDS011;32787;53.316;8.670;2023-12-20T01:40:40;15.43;;;2.55;;
46815;SDS011;32787;53.316;8.670;2023-12-20T01:43:08;19.02;;;3.08;;
46815;SDS011;32787;53.316;8.670;2023-12-20T01:45:36;18.75;;;2.20;;
46815;SDS011;32787;53.316;8.670;2023-12-20T01:48:02;19.40;;;2.47;;
46815;SDS011;32787;53.316;8.670;2023-12-20T01:50:30;22.15;;;3.25;;
46815;SDS011;32787;53.316;8.670;2023-12-20T01:52:57;14.00;;;2.40;;
46815;SDS011;32787;53.316;8.670;2023-12-20T01:55:25;21.45;;;4.20;;
46815;SDS011;32787;53.316;8.670;2023-12-20T01:57:54;15.70;;;2.63;;
46815;SDS011;32787;53.316;8.670;2023-12-20T02:00:21;14.27;;;2.22;;
46815;SDS011;32787;53.316;8.670;2023-12-20T02:02:53;15.38;;;2.40;;
46815;SDS011;32787;53.316;8.670;2023-12-20T02:05:20;14.52;;;1.90;;
46815;SDS011;32787;53.316;8.670;2023-12-20T02:07:46;18.95;;;2.13;;
46815;SDS011;32787;53.316;8.670;2023-12-20T02:10:13;22.92;;;2.60;;
46815;SDS011;32787;53.316;8.670;2023-12-20T02:12:40;20.17;;;2.70;;
46815;SDS011;32787;53.316;8.670;2023-12-20T02:15:06;17.85;;;2.33;;
46815;SDS011;32787;53.316;8.670;2023-12-20T02:17:32;15.00;;;2.47;;
46815;SDS011;32787;53.316;8.670;2023-12-20T02:19:58;12.27;;;2.70;;
46815;SDS011;32787;53.316;8.670;2023-12-20T02:22:24;13.40;;;2.35;;
46815;SDS011;32787;53.316;8.670;2023-12-20T02:24:50;13.57;;;2.55;;
46815;SDS011;32787;53.316;8.670;2023-12-20T02:27:16;20.58;;;2.95;;
46815;SDS011;32787;53.316;8.670;2023-12-20T02:29:44;13.45;;;1.92;;
46815;SDS011;32787;53.316;8.670;2023-12-20T02:32:13;16.80;;;2.05;;
46815;SDS011;32787;53.316;8.670;2023-12-20T02:34:39;16.17;;;2.67;;
46815;SDS011;32787;53.316;8.670;2023-12-20T02:37:04;20.73;;;2.47;;
46815;SDS011;32787;53.316;8.670;2023-12-20T02:39:30;15.65;;;2.13;;
46815;SDS011;32787;53.316;8.670;2023-12-20T02:41:55;22.00;;;3.35;;
46815;SDS011;32787;53.316;8.670;2023-12-20T02:44:21;15.65;;;2.63;;
46815;SDS011;32787;53.316;8.670;2023-12-20T02:46:47;15.18;;;2.30;;
46815;SDS011;32787;53.316;8.670;2023-12-20T02:49:12;21.40;;;3.05;;
46815;SDS011;32787;53.316;8.670;2023-12-20T02:51:38;14.05;;;2.45;;
46815;SDS011;32787;53.316;8.670;2023-12-20T02:54:04;17.13;;;2.10;;
46815;SDS011;32787;53.316;8.670;2023-12-20T02:56:30;15.43;;;2.03;;
46815;SDS011;32787;53.316;8.670;2023-12-20T02:58:59;18.65;;;2.75;;
46815;SDS011;32787;53.316;8.670;2023-12-20T03:01:25;18.70;;;2.50;;
46815;SDS011;32787;53.316;8.670;2023-12-20T03:03:51;15.90;;;3.00;;
46815;SDS011;32787;53.316;8.670;2023-12-20T03:06:17;14.57;;;2.40;;
46815;SDS011;32787;53.316;8.670;2023-12-20T03:08:44;16.92;;;2.50;;
46815;SDS011;32787;53.316;8.670;2023-12-20T03:11:09;20.75;;;3.17;;
46815;SDS011;32787;53.316;8.670;2023-12-20T03:13:35;9.63;;;2.63;;
46815;SDS011;32787;53.316;8.670;2023-12-20T03:16:01;20.08;;;2.78;;
46815;SDS011;32787;53.316;8.670;2023-12-20T03:18:32;15.80;;;3.05;;
46815;SDS011;32787;53.316;8.670;2023-12-20T03:20:58;17.80;;;3.25;;
46815;SDS011;32787;53.316;8.670;2023-12-20T03:23:23;15.30;;;3.08;;
46815;SDS011;32787;53.316;8.670;2023-12-20T03:25:49;16.38;;;2.22;;
46815;SDS011;32787;53.316;8.670;2023-12-20T03:28:15;12.95;;;3.20;;
46815;SDS011;32787;53.316;8.670;2023-12-20T03:30:41;15.88;;;2.88;;
46815;SDS011;32787;53.316;8.670;2023-12-20T03:33:06;17.67;;;2.50;;
46815;SDS011;32787;53.316;8.670;2023-12-20T03:35:32;21.67;;;2.40;;
46815;SDS011;32787;53.316;8.670;2023-12-20T03:37:58;15.98;;;2.30;;
46815;SDS011;32787;53.316;8.670;2023-12-20T03:40:25;19.52;;;3.92;;
46815;SDS011;32787;53.316;8.670;2023-12-20T03:42:51;19.40;;;2.95;;
46815;SDS011;32787;53.316;8.670;2023-12-20T03:45:16;10.82;;;2.00;;
46815;SDS011;32787;53.316;8.670;2023-12-20T03:47:42;15.27;;;2.67;;
46815;SDS011;32787;53.316;8.670;2023-12-20T03:50:07;16.02;;;2.40;;
46815;SDS011;32787;53.316;8.670;2023-12-20T03:52:33;27.08;;;3.05;;
46815;SDS011;32787;53.316;8.670;2023-12-20T03:54:59;16.08;;;2.78;;
46815;SDS011;32787;53.316;8.670;2023-12-20T03:57:24;18.08;;;2.53;;
46815;SDS011;32787;53.316;8.670;2023-12-20T03:59:50;17.83;;;2.70;;
46815;SDS011;32787;53.316;8.670;2023-12-20T04:02:16;16.50;;;3.00;;
46815;SDS011;32787;53.316;8.670;2023-12-20T04:04:43;20.52;;;2.33;;
46815;SDS011;32787;53.316;8.670;2023-12-20T04:07:08;17.58;;;2.47;;
46815;SDS011;32787;53.316;8.670;2023-12-20T04:09:34;22.60;;;2.53;;
46815;SDS011;32787;53.316;8.670;2023-12-20T04:12:00;22.33;;;3.00;;
46815;SDS011;32787;53.316;8.670;2023-12-20T04:14:26;17.52;;;2.60;;
46815;SDS011;32787;53.316;8.670;2023-12-20T04:16:52;19.75;;;3.08;;
46815;SDS011;32787;53.316;8.670;2023-12-20T04:19:18;14.52;;;3.25;;
46815;SDS011;32787;53.316;8.670;2023-12-20T04:21:44;17.15;;;2.70;;
46815;SDS011;32787;53.316;8.670;2023-12-20T04:24:09;14.15;;;2.85;;
46815;SDS011;32787;53.316;8.670;2023-12-20T04:26:35;20.38;;;3.10;;
46815;SDS011;32787;53.316;8.670;2023-12-20T04:29:01;22.13;;;3.10;;
46815;SDS011;32787;53.316;8.670;2023-12-20T04:31:27;20.23;;;2.70;;
46815;SDS011;32787;53.316;8.670;2023-12-20T04:33:52;23.13;;;3.05;;
46815;SDS011;32787;53.316;8.670;2023-12-20T04:36:18;17.40;;;3.22;;
46815;SDS011;32787;53.316;8.670;2023-12-20T04:38:44;24.88;;;3.00;;
46815;SDS011;32787;53.316;8.670;2023-12-20T04:41:09;13.45;;;2.60;;
46815;SDS011;32787;53.316;8.670;2023-12-20T04:43:35;15.40;;;2.45;;
46815;SDS011;32787;53.316;8.670;2023-12-20T04:46:00;21.55;;;3.03;;
46815;SDS011;32787;53.316;8.670;2023-12-20T04:48:27;12.85;;;2.72;;
46815;SDS011;32787;53.316;8.670;2023-12-20T04:50:53;28.55;;;2.88;;
46815;SDS011;32787;53.316;8.670;2023-12-20T04:53:18;17.45;;;2.92;;
46815;SDS011;32787;53.316;8.670;2023-12-20T04:55:44;16.35;;;2.40;;
46815;SDS011;32787;53.316;8.670;2023-12-20T04:58:10;22.13;;;3.42;;
46815;SDS011;32787;53.316;8.670;2023-12-20T05:00:35;16.42;;;2.60;;
46815;SDS011;32787;53.316;8.670;2023-12-20T05:03:01;16.63;;;3.28;;
46815;SDS011;32787;53.316;8.670;2023-12-20T05:05:27;12.25;;;2.92;;
46815;SDS011;32787;53.316;8.670;2023-12-20T05:07:52;26.10;;;3.08;;
46815;SDS011;32787;53.316;8.670;2023-12-20T05:10:18;15.68;;;2.70;;
46815;SDS011;32787;53.316;8.670;2023-12-20T05:12:44;12.90;;;3.30;;
46815;SDS011;32787;53.316;8.670;2023-12-20T05:15:09;18.52;;;2.67;;
46815;SDS011;32787;53.316;8.670;2023-12-20T05:17:35;22.65;;;3.38;;
46815;SDS011;32787;53.316;8.670;2023-12-20T05:20:01;16.75;;;2.42;;
46815;SDS011;32787;53.316;8.670;2023-12-20T05:22:27;17.50;;;2.92;;
46815;SDS011;32787;53.316;8.670;2023-12-20T05:24:52;20.55;;;3.20;;
46815;SDS011;32787;53.316;8.670;2023-12-20T05:27:18;19.60;;;2.95;;
46815;SDS011;32787;53.316;8.670;2023-12-20T05:29:44;22.23;;;3.53;;
46815;SDS011;32787;53.316;8.670;2023-12-20T05:32:09;26.85;;;5.10;;
46815;SDS011;32787;53.316;8.670;2023-12-20T05:34:35;23.70;;;3.97;;
46815;SDS011;32787;53.316;8.670;2023-12-20T05:37:01;17.60;;;3.88;;
46815;SDS011;32787;53.316;8.670;2023-12-20T05:39:28;23.33;;;4.13;;
46815;SDS011;32787;53.316;8.670;2023-12-20T05:41:53;23.77;;;4.00;;
46815;SDS011;32787;53.316;8.670;2023-12-20T05:44:19;21.55;;;4.18;;
46815;SDS011;32787;53.316;8.670;2023-12-20T05:46:44;23.45;;;3.88;;
46815;SDS011;32787;53.316;8.670;2023-12-20T05:49:10;29.65;;;3.72;;
46815;SDS011;32787;53.316;8.670;2023-12-20T05:51:36;24.45;;;3.78;;
46815;SDS011;32787;53.316;8.670;2023-12-20T05:54:01;22.40;;;4.45;;
46815;SDS011;32787;53.316;8.670;2023-12-20T05:56:27;28.98;;;4.22;;
46815;SDS011;32787;53.316;8.670;2023-12-20T05:58:53;33.50;;;3.75;;
46815;SDS011;32787;53.316;8.670;2023-12-20T06:01:18;17.08;;;3.28;;
46815;SDS011;32787;53.316;8.670;2023-12-20T06:03:44;23.52;;;3.08;;
46815;SDS011;32787;53.316;8.670;2023-12-20T06:06:11;21.88;;;3.53;;
46815;SDS011;32787;53.316;8.670;2023-12-20T06:08:38;19.25;;;3.70;;
46815;SDS011;32787;53.316;8.670;2023-12-20T06:11:03;26.25;;;4.63;;
46815;SDS011;32787;53.316;8.670;2023-12-20T06:13:30;17.80;;;3.38;;
46815;SDS011;32787;53.316;8.670;2023-12-20T06:15:56;19.77;;;3.70;;
46815;SDS011;32787;53.316;8.670;2023-12-20T06:18:22;29.75;;;4.10;;
46815;SDS011;32787;53.316;8.670;2023-12-20T06:20:47;28.48;;;4.10;;
46815;SDS011;32787;53.316;8.670;2023-12-20T06:23:13;23.08;;;3.67;;
46815;SDS011;32787;53.316;8.670;2023-12-20T06:25:39;24.50;;;3.72;;
46815;SDS011;32787;53.316;8.670;2023-12-20T06:28:05;23.98;;;4.20;;
46815;SDS011;32787;53.316;8.670;2023-12-20T06:30:31;21.35;;;5.13;;
46815;SDS011;32787;53.316;8.670;2023-12-20T06:32:57;23.67;;;5.18;;
46815;SDS011;32787;53.316;8.670;2023-12-20T06:35:23;24.17;;;3.80;;
46815;SDS011;32787;53.316;8.670;2023-12-20T06:37:49;29.95;;;3.85;;
46815;SDS011;32787;53.316;8.670;2023-12-20T06:40:15;25.58;;;3.67;;
46815;SDS011;32787;53.316;8.670;2023-12-20T06:42:41;29.42;;;3.92;;
46815;SDS011;32787;53.316;8.670;2023-12-20T06:45:07;24.80;;;4.43;;
46815;SDS011;32787;53.316;8.670;2023-12-20T06:47:33;27.25;;;3.92;;
46815;SDS011;32787;53.316;8.670;2023-12-20T06:49:59;31.77;;;4.50;;
46815;SDS011;32787;53.316;8.670;2023-12-20T06:52:24;20.00;;;3.97;;
46815;SDS011;32787;53.316;8.670;2023-12-20T06:54:50;33.17;;;4.78;;
46815;SDS011;32787;53.316;8.670;2023-12-20T06:57:16;31.67;;;4.47;;
46815;SDS011;32787;53.316;8.670;2023-12-20T06:59:41;31.08;;;5.50;;
46815;SDS011;32787;53.316;8.670;2023-12-20T07:02:08;24.20;;;3.80;;
46815;SDS011;32787;53.316;8.670;2023-12-20T07:04:34;20.23;;;3.85;;
46815;SDS011;32787;53.316;8.670;2023-12-20T07:07:03;33.50;;;5.63;;
46815;SDS011;32787;53.316;8.670;2023-12-20T07:09:29;30.92;;;4.53;;
46815;SDS011;32787;53.316;8.670;2023-12-20T07:11:55;25.23;;;4.55;;
46815;SDS011;32787;53.316;8.670;2023-12-20T07:14:20;28.45;;;4.30;;
46815;SDS011;32787;53.316;8.670;2023-12-20T07:16:46;20.90;;;4.10;;
46815;SDS011;32787;53.316;8.670;2023-12-20T07:19:12;29.05;;;4.97;;
46815;SDS011;32787;53.316;8.670;2023-12-20T07:21:38;26.75;;;5.32;;
46815;SDS011;32787;53.316;8.670;2023-12-20T07:24:03;29.63;;;4.38;;
46815;SDS011;32787;53.316;8.670;2023-12-20T07:26:29;26.27;;;4.85;;
46815;SDS011;32787;53.316;8.670;2023-12-20T07:28:55;24.63;;;4.78;;
46815;SDS011;32787;53.316;8.670;2023-12-20T07:31:20;31.02;;;4.80;;
46815;SDS011;32787;53.316;8.670;2023-12-20T07:33:46;34.72;;;4.80;;
46815;SDS011;32787;53.316;8.670;2023-12-20T07:36:12;25.27;;;4.68;;
46815;SDS011;32787;53.316;8.670;2023-12-20T07:38:38;31.70;;;4.65;;
46815;SDS011;32787;53.316;8.670;2023-12-20T07:41:03;23.73;;;4.25;;
46815;SDS011;32787;53.316;8.670;2023-12-20T07:43:30;20.42;;;3.50;;
46815;SDS011;32787;53.316;8.670;2023-12-20T07:45:55;21.48;;;4.47;;
46815;SDS011;32787;53.316;8.670;2023-12-20T07:48:21;25.67;;;4.30;;
46815;SDS011;32787;53.316;8.670;2023-12-20T07:50:47;21.42;;;3.83;;
46815;SDS011;32787;53.316;8.670;2023-12-20T07:53:12;27.73;;;4.03;;
46815;SDS011;32787;53.316;8.670;2023-12-20T07:55:39;26.70;;;4.57;;
46815;SDS011;32787;53.316;8.670;2023-12-20T07:58:04;27.48;;;4.20;;
46815;SDS011;32787;53.316;8.670;2023-12-20T08:00:30;29.52;;;5.38;;
46815;SDS011;32787;53.316;8.670;2023-12-20T08:02:56;28.35;;;5.03;;
46815;SDS011;32787;53.316;8.670;2023-12-20T08:05:21;29.98;;;4.88;;
46815;SDS011;32787;53.316;8.670;2023-12-20T08:07:47;23.85;;;4.30;;
46815;SDS011;32787;53.316;8.670;2023-12-20T08:10:13;34.78;;;5.15;;
46815;SDS011;32787;53.316;8.670;2023-12-20T08:12:38;29.77;;;4.30;;
46815;SDS011;32787;53.316;8.670;2023-12-20T08:15:05;26.75;;;5.15;;
46815;SDS011;32787;53.316;8.670;2023-12-20T08:17:31;27.10;;;4.53;;
46815;SDS011;32787;53.316;8.670;2023-12-20T08:19:56;35.47;;;6.05;;
46815;SDS011;32787;53.316;8.670;2023-12-20T08:22:22;29.13;;;5.03;;
46815;SDS011;32787;53.316;8.670;2023-12-20T08:24:48;24.80;;;4.72;;
46815;SDS011;32787;53.316;8.670;2023-12-20T08:27:14;30.83;;;4.50;;
46815;SDS011;32787;53.316;8.670;2023-12-20T08:29:39;33.35;;;4.75;;
46815;SDS011;32787;53.316;8.670;2023-12-20T08:32:05;27.13;;;4.63;;
46815;SDS011;32787;53.316;8.670;2023-12-20T08:34:31;26.45;;;5.40;;
46815;SDS011;32787;53.316;8.670;2023-12-20T08:36:56;30.02;;;5.40;;
46815;SDS011;32787;53.316;8.670;2023-12-20T08:39:22;30.48;;;4.82;;
46815;SDS011;32787;53.316;8.670;2023-12-20T08:41:48;28.85;;;5.47;;
46815;SDS011;32787;53.316;8.670;2023-12-20T08:44:13;25.13;;;4.38;;
46815;SDS011;32787;53.316;8.670;2023-12-20T08:46:39;28.83;;;4.75;;
46815;SDS011;32787;53.316;8.670;2023-12-20T08:49:05;30.75;;;4.80;;
46815;SDS011;32787;53.316;8.670;2023-12-20T08:51:30;27.40;;;4.25;;
46815;SDS011;32787;53.316;8.670;2023-12-20T08:53:56;31.50;;;4.65;;
46815;SDS011;32787;53.316;8.670;2023-12-20T08:56:21;23.45;;;4.32;;
46815;SDS011;32787;53.316;8.670;2023-12-20T08:58:47;28.17;;;4.32;;
46815;SDS011;32787;53.316;8.670;2023-12-20T09:01:13;28.80;;;4.20;;
46815;SDS011;32787;53.316;8.670;2023-12-20T09:03:40;24.83;;;4.60;;
46815;SDS011;32787;53.316;8.670;2023-12-20T09:06:06;31.10;;;4.97;;
46815;SDS011;32787;53.316;8.670;2023-12-20T09:08:31;15.75;;;2.40;;
46815;SDS011;32787;53.316;8.670;2023-12-20T09:10:58;8.10;;;1.40;;
46815;SDS011;32787;53.316;8.670;2023-12-20T09:13:24;11.15;;;1.38;;
46815;SDS011;32787;53.316;8.670;2023-12-20T09:15:55;9.00;;;1.30;;
46815;SDS011;32787;53.316;8.670;2023-12-20T09:18:21;6.38;;;0.93;;
46815;SDS011;32787;53.316;8.670;2023-12-20T09:20:47;6.10;;;0.98;;
46815;SDS011;32787;53.316;8.670;2023-12-20T09:23:13;7.20;;;0.80;;
46815;SDS011;32787;53.316;8.670;2023-12-20T09:25:38;8.65;;;1.15;;
46815;SDS011;32787;53.316;8.670;2023-12-20T09:28:04;6.47;;;1.00;;
46815;SDS011;32787;53.316;8.670;2023-12-20T09:30:30;7.07;;;1.08;;
46815;SDS011;32787;53.316;8.670;2023-12-20T09:32:56;9.50;;;1.65;;
46815;SDS011;32787;53.316;8.670;2023-12-20T09:35:22;8.57;;;1.30;;
46815;SDS011;32787;53.316;8.670;2023-12-20T09:37:48;9.18;;;1.33;;
46815;SDS011;32787;53.316;8.670;2023-12-20T09:40:14;6.10;;;1.20;;
46815;SDS011;32787;53.316;8.670;2023-12-20T09:45:15;8.65;;;1.33;;
46815;SDS011;32787;53.316;8.670;2023-12-20T09:47:44;8.73;;;1.80;;
46815;SDS011;32787;53.316;8.670;2023-12-20T09:50:10;10.10;;;1.77;;
46815;SDS011;32787;53.316;8.670;2023-12-20T09:52:38;8.23;;;1.38;;
46815;SDS011;32787;53.316;8.670;2023-12-20T09:55:04;8.80;;;1.70;;
46815;SDS011;32787;53.316;8.670;2023-12-20T09:57:32;9.77;;;1.48;;
46815;SDS011;32787;53.316;8.670;2023-12-20T09:59:58;7.72;;;1.48;;
46815;SDS011;32787;53.316;8.670;2023-12-20T10:02:24;11.57;;;1.23;;
46815;SDS011;32787;53.316;8.670;2023-12-20T10:04:54;10.10;;;1.55;;
46815;SDS011;32787;53.316;8.670;2023-12-20T10:07:20;12.05;;;1.77;;
46815;SDS011;32787;53.316;8.670;2023-12-20T10:09:47;10.43;;;1.33;;
46815;SDS011;32787;53.316;8.670;2023-12-20T10:12:13;4.88;;;1.10;;
46815;SDS011;32787;53.316;8.670;2023-12-20T10:14:39;10.57;;;1.63;;
46815;SDS011;32787;53.316;8.670;2023-12-20T10:17:05;8.45;;;1.52;;
46815;SDS011;32787;53.316;8.670;2023-12-20T10:19:32;8.73;;;1.35;;
46815;SDS011;32787;53.316;8.670;2023-12-20T10:22:01;12.88;;;1.38;;
46815;SDS011;32787;53.316;8.670;2023-12-20T10:24:29;11.48;;;1.27;;
46815;SDS011;32787;53.316;8.670;2023-12-20T10:27:02;11.90;;;1.27;;
46815;SDS011;32787;53.316;8.670;2023-12-20T10:29:36;9.00;;;1.52;;
46815;SDS011;32787;53.316;8.670;2023-12-20T10:34:48;8.75;;;1.05;;
46815;SDS011;32787;53.316;8.670;2023-12-20T10:37:13;9.70;;;1.85;;
46815;SDS011;32787;53.316;8.670;2023-12-20T10:39:39;5.60;;;1.48;;
46815;SDS011;32787;53.316;8.670;2023-12-20T10:42:08;8.77;;;1.23;;
46815;SDS011;32787;53.316;8.670;2023-12-20T10:44:38;12.30;;;1.40;;
46815;SDS011;32787;53.316;8.670;2023-12-20T10:47:04;6.10;;;1.00;;
46815;SDS011;32787;53.316;8.670;2023-12-20T10:49:31;7.78;;;1.48;;
46815;SDS011;32787;53.316;8.670;2023-12-20T10:52:01;12.48;;;1.20;;
46815;SDS011;32787;53.316;8.670;2023-12-20T10:54:29;11.38;;;1.52;;
46815;SDS011;32787;53.316;8.670;2023-12-20T10:56:55;10.15;;;1.40;;
46815;SDS011;32787;53.316;8.670;2023-12-20T10:59:23;9.00;;;1.67;;
46815;SDS011;32787;53.316;8.670;2023-12-20T11:01:49;9.80;;;1.88;;
46815;SDS011;32787;53.316;8.670;2023-12-20T11:04:18;5.07;;;1.25;;
46815;SDS011;32787;53.316;8.670;2023-12-20T11:06:51;11.65;;;1.50;;
46815;SDS011;32787;53.316;8.670;2023-12-20T11:09:24;9.82;;;1.70;;
46815;SDS011;32787;53.316;8.670;2023-12-20T11:11:59;11.57;;;1.50;;
46815;SDS011;32787;53.316;8.670;2023-12-20T11:14:36;13.02;;;1.88;;
46815;SDS011;32787;53.316;8.670;2023-12-20T11:17:11;10.68;;;1.58;;
46815;SDS011;32787;53.316;8.670;2023-12-20T11:22:26;13.48;;;1.95;;
46815;SDS011;32787;53.316;8.670;2023-12-20T11:24:54;15.32;;;1.95;;
46815;SDS011;32787;53.316;8.670;2023-12-20T11:27:34;15.10;;;1.97;;
46815;SDS011;32787;53.316;8.670;2023-12-20T11:30:00;9.85;;;1.52;;
46815;SDS011;32787;53.316;8.670;2023-12-20T11:32:31;12.95;;;2.10;;
46815;SDS011;32787;53.316;8.670;2023-12-20T11:35:00;15.48;;;3.05;;
46815;SDS011;32787;53.316;8.670;2023-12-20T11:37:41;14.50;;;2.05;;
46815;SDS011;32787;53.316;8.670;2023-12-20T11:40:12;18.70;;;2.78;;
46815;SDS011;32787;53.316;8.670;2023-12-20T11:42:49;11.82;;;2.47;;
46815;SDS011;32787;53.316;8.670;2023-12-20T11:45:19;18.77;;;2.45;;
46815;SDS011;32787;53.316;8.670;2023-12-20T11:47:49;12.95;;;2.25;;
46815;SDS011;32787;53.316;8.670;2023-12-20T11:50:15;12.85;;;1.88;;
46815;SDS011;32787;53.316;8.670;2023-12-20T11:52:44;21.27;;;3.60;;
46815;SDS011;32787;53.316;8.670;2023-12-20T11:55:10;16.10;;;2.42;;
46815;SDS011;32787;53.316;8.670;2023-12-20T11:57:36;14.68;;;2.08;;
46815;SDS011;32787;53.316;8.670;2023-12-20T12:00:02;20.80;;;2.53;;
46815;SDS011;32787;53.316;8.670;2023-12-20T12:02:28;19.85;;;2.50;;
46815;SDS011;32787;53.316;8.670;2023-12-20T12:04:55;22.25;;;3.22;;
46815;SDS011;32787;53.316;8.670;2023-12-20T12:07:21;14.90;;;2.47;;
46815;SDS011;32787;53.316;8.670;2023-12-20T12:09:47;13.90;;;2.80;;
46815;SDS011;32787;53.316;8.670;2023-12-20T12:12:13;15.73;;;2.22;;
46815;SDS011;32787;53.316;8.670;2023-12-20T12:14:40;17.30;;;3.00;;
46815;SDS011;32787;53.316;8.670;2023-12-20T12:17:12;16.27;;;2.65;;
46815;SDS011;32787;53.316;8.670;2023-12-20T12:19:39;14.60;;;2.22;;
46815;SDS011;32787;53.316;8.670;2023-12-20T12:22:08;15.65;;;2.40;;
46815;SDS011;32787;53.316;8.670;2023-12-20T12:24:45;15.88;;;2.00;;
46815;SDS011;32787;53.316;8.670;2023-12-20T12:27:11;10.18;;;1.95;;
46815;SDS011;32787;53.316;8.670;2023-12-20T12:29:38;10.75;;;2.03;;
46815;SDS011;32787;53.316;8.670;2023-12-20T12:32:05;11.70;;;1.92;;
46815;SDS011;32787;53.316;8.670;2023-12-20T12:34:32;11.70;;;1.92;;
46815;SDS011;32787;53.316;8.670;2023-12-20T12:36:59;15.27;;;2.40;;
46815;SDS011;32787;53.316;8.670;2023-12-20T12:39:24;16.33;;;3.08;;
46815;SDS011;32787;53.316;8.670;2023-12-20T12:41:50;21.00;;;2.00;;
46815;SDS011;32787;53.316;8.670;2023-12-20T12:44:17;15.23;;;2.45;;
46815;SDS011;32787;53.316;8.670;2023-12-20T12:46:43;14.00;;;2.97;;
46815;SDS011;32787;53.316;8.670;2023-12-20T12:49:12;16.15;;;3.00;;
46815;SDS011;32787;53.316;8.670;2023-12-20T12:51:38;20.08;;;2.60;;
46815;SDS011;32787;53.316;8.670;2023-12-20T12:54:03;22.85;;;2.70;;
46815;SDS011;32787;53.316;8.670;2023-12-20T12:56:29;13.77;;;2.42;;
46815;SDS011;32787;53.316;8.670;2023-12-20T12:58:55;20.58;;;3.30;;
46815;SDS011;32787;53.316;8.670;2023-12-20T13:01:21;20.00;;;2.70;;
46815;SDS011;32787;53.316;8.670;2023-12-20T13:03:47;23.52;;;3.85;;
46815;SDS011;32787;53.316;8.670;2023-12-20T13:06:12;21.83;;;2.92;;
46815;SDS011;32787;53.316;8.670;2023-12-20T13:08:38;21.40;;;3.17;;
46815;SDS011;32787;53.316;8.670;2023-12-20T13:11:04;16.98;;;2.55;;
46815;SDS011;32787;53.316;8.670;2023-12-20T13:13:30;22.77;;;3.28;;
46815;SDS011;32787;53.316;8.670;2023-12-20T13:15:56;23.92;;;3.60;;
46815;SDS011;32787;53.316;8.670;2023-12-20T13:18:22;20.40;;;3.17;;
46815;SDS011;32787;53.316;8.670;2023-12-20T13:20:48;17.80;;;2.78;;
46815;SDS011;32787;53.316;8.670;2023-12-20T13:23:14;18.40;;;3.00;;
46815;SDS011;32787;53.316;8.670;2023-12-20T13:25:41;23.27;;;2.97;;
46815;SDS011;32787;53.316;8.670;2023-12-20T13:28:06;19.42;;;3.42;;
46815;SDS011;32787;53.316;8.670;2023-12-20T13:30:33;20.27;;;3.78;;
46815;SDS011;32787;53.316;8.670;2023-12-20T13:32:59;18.35;;;2.60;;
46815;SDS011;32787;53.316;8.670;2023-12-20T13:35:25;19.13;;;3.40;;
46815;SDS011;32787;53.316;8.670;2023-12-20T13:37:50;27.98;;;3.75;;
46815;SDS011;32787;53.316;8.670;2023-12-20T13:40:16;20.63;;;3.22;;
46815;SDS011;32787;53.316;8.670;2023-12-20T13:42:43;21.83;;;3.13;;
46815;SDS011;32787;53.316;8.670;2023-12-20T13:45:08;24.38;;;4.32;;
46815;SDS011;32787;53.316;8.670;2023-12-20T13:47:34;20.17;;;3.25;;
46815;SDS011;32787;53.316;8.670;2023-12-20T13:50:02;21.02;;;3.95;;
46815;SDS011;32787;53.316;8.670;2023-12-20T13:52:29;22.17;;;3.13;;
46815;SDS011;32787;53.316;8.670;2023-12-20T13:54:54;18.85;;;3.05;;
46815;SDS011;32787;53.316;8.670;2023-12-20T13:57:20;26.70;;;3.63;;
46815;SDS011;32787;53.316;8.670;2023-12-20T13:59:46;27.33;;;3.63;;
46815;SDS011;32787;53.316;8.670;2023-12-20T14:02:11;20.45;;;3.35;;
46815;SDS011;32787;53.316;8.670;2023-12-20T14:04:37;23.80;;;3.63;;
46815;SDS011;32787;53.316;8.670;2023-12-20T14:07:04;24.63;;;3.90;;
46815;SDS011;32787;53.316;8.670;2023-12-20T14:09:32;27.05;;;3.50;;
46815;SDS011;32787;53.316;8.670;2023-12-20T14:11:58;21.30;;;3.38;;
46815;SDS011;32787;53.316;8.670;2023-12-20T14:14:24;25.58;;;3.92;;
46815;SDS011;32787;53.316;8.670;2023-12-20T14:16:49;19.25;;;3.15;;
46815;SDS011;32787;53.316;8.670;2023-12-20T14:19:16;18.42;;;3.30;;
46815;SDS011;32787;53.316;8.670;2023-12-20T14:21:42;33.05;;;3.85;;
46815;SDS011;32787;53.316;8.670;2023-12-20T14:24:10;20.88;;;3.50;;
46815;SDS011;32787;53.316;8.670;2023-12-20T14:26:39;21.13;;;3.33;;
46815;SDS011;32787;53.316;8.670;2023-12-20T14:29:08;21.25;;;3.45;;
46815;SDS011;32787;53.316;8.670;2023-12-20T14:31:34;22.55;;;4.15;;
46815;SDS011;32787;53.316;8.670;2023-12-20T14:34:00;23.45;;;3.45;;
46815;SDS011;32787;53.316;8.670;2023-12-20T14:36:28;19.58;;;4.47;;
46815;SDS011;32787;53.316;8.670;2023-12-20T14:38:56;19.33;;;3.70;;